sensor_id;sensor_type;location;lat;lon;timestamp;temperature;humidity
17998;DHT22;9124;48.144;17.098;2024-03-23T00:55:32;10.80;78.30
17998;DHT22;9124;48.144;17.098;2024-03-23T00:59:58;10.70;78.60
17998;DHT22;9124;48.144;17.098;2024-03-23T01:04:25;10.70;78.90
17998;DHT22;9124;48.144;17.098;2024-03-23T01:08:52;10.60;79.30
17998;DHT22;9124;48.144;17.098;2024-03-23T01:13:18;10.60;79.70
17998;DHT22;9124;48.144;17.098;2024-03-23T01:17:47;10.70;80.10
17998;DHT22;9124;48.144;17.098;2024-03-23T01:22:14;10.70;80.40
17998;DHT22;9124;48.144;17.098;2024-03-23T01:26:40;10.80;80.70
17998;DHT22;9124;48.144;17.098;2024-03-23T01:31:07;10.80;81.40
17998;DHT22;9124;48.144;17.098;2024-03-23T01:35:33;10.90;81.00
17998;DHT22;9124;48.144;17.098;2024-03-23T01:39:59;10.90;81.10
17998;DHT22;9124;48.144;17.098;2024-03-23T01:44:26;10.80;81.20
17998;DHT22;9124;48.144;17.098;2024-03-23T01:48:53;10.80;81.60
17998;DHT22;9124;48.144;17.098;2024-03-23T01:53:20;10.70;81.90
17998;DHT22;9124;48.144;17.098;2024-03-23T01:57:48;10.70;82.10
17998;DHT22;9124;48.144;17.098;2024-03-23T02:02:16;10.60;82.50
17998;DHT22;9124;48.144;17.098;2024-03-23T02:06:44;10.50;82.90
17998;DHT22;9124;48.144;17.098;2024-03-23T02:11:11;10.50;83.30
17998;DHT22;9124;48.144;17.098;2024-03-23T02:15:39;10.50;83.80
17998;DHT22;9124;48.144;17.098;2024-03-23T02:20:06;10.50;84.20
17998;DHT22;9124;48.144;17.098;2024-03-23T02:24:33;10.60;84.60
17998;DHT22;9124;48.144;17.098;2024-03-23T02:29:00;10.60;84.90
17998;DHT22;9124;48.144;17.098;2024-03-23T02:33:27;10.60;85.10
17998;DHT22;9124;48.144;17.098;2024-03-23T02:37:56;10.60;85.40
17998;DHT22;9124;48.144;17.098;2024-03-23T02:42:23;10.60;85.80
17998;DHT22;9124;48.144;17.098;2024-03-23T02:46:50;10.50;86.30
17998;DHT22;9124;48.144;17.098;2024-03-23T02:51:16;10.50;86.80
17998;DHT22;9124;48.144;17.098;2024-03-23T02:55:43;10.50;87.00
17998;DHT22;9124;48.144;17.098;2024-03-23T03:00:09;10.50;87.30
17998;DHT22;9124;48.144;17.098;2024-03-23T03:04:37;10.50;87.40
17998;DHT22;9124;48.144;17.098;2024-03-23T03:09:04;10.50;87.80
17998;DHT22;9124;48.144;17.098;2024-03-23T03:13:30;10.50;88.40
17998;DHT22;9124;48.144;17.098;2024-03-23T03:17:57;10.50;88.80
17998;DHT22;9124;48.144;17.098;2024-03-23T03:22:23;10.40;89.90
17998;DHT22;9124;48.144;17.098;2024-03-23T03:26:50;10.40;89.90
17998;DHT22;9124;48.144;17.098;2024-03-23T03:31:16;10.40;90.20
17998;DHT22;9124;48.144;17.098;2024-03-23T03:35:44;10.30;90.40
17998;DHT22;9124;48.144;17.098;2024-03-23T03:40:12;10.30;90.70
17998;DHT22;9124;48.144;17.098;2024-03-23T03:44:41;10.30;91.10
17998;DHT22;9124;48.144;17.098;2024-03-23T03:49:07;10.20;91.40
17998;DHT22;9124;48.144;17.098;2024-03-23T03:53:34;10.20;91.70
17998;DHT22;9124;48.144;17.098;2024-03-23T03:58:00;10.20;92.10
17998;DHT22;9124;48.144;17.098;2024-03-23T04:02:26;10.10;92.50
17998;DHT22;9124;48.144;17.098;2024-03-23T04:07:02;10.20;92.80
17998;DHT22;9124;48.144;17.098;2024-03-23T04:11:28;10.10;93.20
17998;DHT22;9124;48.144;17.098;2024-03-23T04:15:56;10.00;93.50
17998;DHT22;9124;48.144;17.098;2024-03-23T04:20:22;10.00;94.00
17998;DHT22;9124;48.144;17.098;2024-03-23T04:24:49;9.90;94.50
17998;DHT22;9124;48.144;17.098;2024-03-23T04:29:15;9.90;95.00
17998;DHT22;9124;48.144;17.098;2024-03-23T04:33:41;9.80;95.50
17998;DHT22;9124;48.144;17.098;2024-03-23T04:38:07;9.70;96.00
17998;DHT22;9124;48.144;17.098;2024-03-23T04:42:34;9.70;96.50
17998;DHT22;9124;48.144;17.098;2024-03-23T04:47:01;9.70;96.90
17998;DHT22;9124;48.144;17.098;2024-03-23T04:51:27;9.70;97.40
17998;DHT22;9124;48.144;17.098;2024-03-23T04:56:01;9.70;97.70
17998;DHT22;9124;48.144;17.098;2024-03-23T05:00:28;9.70;98.10
17998;DHT22;9124;48.144;17.098;2024-03-23T05:04:55;9.80;98.40
17998;DHT22;9124;48.144;17.098;2024-03-23T05:09:22;9.80;98.70
17998;DHT22;9124;48.144;17.098;2024-03-23T05:13:48;9.80;98.90
17998;DHT22;9124;48.144;17.098;2024-03-23T05:18:15;9.80;99.30
17998;DHT22;9124;48.144;17.098;2024-03-23T05:22:41;9.80;99.50
17998;DHT22;9124;48.144;17.098;2024-03-23T05:27:07;9.90;99.80
17998;DHT22;9124;48.144;17.098;2024-03-23T05:31:34;9.90;99.90
17998;DHT22;9124;48.144;17.098;2024-03-23T05:36:01;9.90;99.90
17998;DHT22;9124;48.144;17.098;2024-03-23T05:40:28;10.00;99.90
17998;DHT22;9124;48.144;17.098;2024-03-23T05:44:54;10.20;99.90
17998;DHT22;9124;48.144;17.098;2024-03-23T05:49:21;10.30;99.90
17998;DHT22;9124;48.144;17.098;2024-03-23T05:53:47;10.30;99.90
17998;DHT22;9124;48.144;17.098;2024-03-23T05:58:17;10.30;99.90
17998;DHT22;9124;48.144;17.098;2024-03-23T06:02:45;10.40;99.90
17998;DHT22;9124;48.144;17.098;2024-03-23T06:07:11;10.50;99.90
17998;DHT22;9124;48.144;17.098;2024-03-23T06:11:39;10.50;99.90
17998;DHT22;9124;48.144;17.098;2024-03-23T06:16:06;10.40;99.90
17998;DHT22;9124;48.144;17.098;2024-03-23T06:20:33;10.50;99.90
17998;DHT22;9124;48.144;17.098;2024-03-23T06:25:00;10.60;99.90
17998;DHT22;9124;48.144;17.098;2024-03-23T06:29:26;11.00;99.90
17998;DHT22;9124;48.144;17.098;2024-03-23T06:33:53;11.20;99.90
17998;DHT22;9124;48.144;17.098;2024-03-23T06:38:21;11.40;99.40
17998;DHT22;9124;48.144;17.098;2024-03-23T06:42:48;11.80;98.90
17998;DHT22;9124;48.144;17.098;2024-03-23T06:47:14;11.90;97.70
17998;DHT22;9124;48.144;17.098;2024-03-23T06:51:41;11.90;96.80
17998;DHT22;9124;48.144;17.098;2024-03-23T06:56:07;12.20;96.50
17998;DHT22;9124;48.144;17.098;2024-03-23T07:00:34;12.40;95.80
17998;DHT22;9124;48.144;17.098;2024-03-23T07:05:00;12.90;95.00
17998;DHT22;9124;48.144;17.098;2024-03-23T07:09:28;13.10;93.50
17998;DHT22;9124;48.144;17.098;2024-03-23T07:13:54;13.30;92.00
17998;DHT22;9124;48.144;17.098;2024-03-23T07:18:21;13.20;90.90
17998;DHT22;9124;48.144;17.098;2024-03-23T07:22:48;13.10;90.70
17998;DHT22;9124;48.144;17.098;2024-03-23T07:27:15;13.10;90.80
17998;DHT22;9124;48.144;17.098;2024-03-23T07:31:41;13.20;90.90
17998;DHT22;9124;48.144;17.098;2024-03-23T07:36:07;13.10;90.60
17998;DHT22;9124;48.144;17.098;2024-03-23T07:40:34;13.20;90.40
17998;DHT22;9124;48.144;17.098;2024-03-23T07:45:00;13.20;90.20
17998;DHT22;9124;48.144;17.098;2024-03-23T07:49:27;13.60;90.10
17998;DHT22;9124;48.144;17.098;2024-03-23T07:53:53;13.80;88.60
17998;DHT22;9124;48.144;17.098;2024-03-23T07:58:20;14.10;88.00
17998;DHT22;9124;48.144;17.098;2024-03-23T08:02:46;14.20;85.70
17998;DHT22;9124;48.144;17.098;2024-03-23T08:07:13;14.30;84.40
17998;DHT22;9124;48.144;17.098;2024-03-23T08:11:39;14.70;84.40
17998;DHT22;9124;48.144;17.098;2024-03-23T08:16:06;14.70;82.60
17998;DHT22;9124;48.144;17.098;2024-03-23T08:20:32;14.70;82.00
17998;DHT22;9124;48.144;17.098;2024-03-23T08:24:58;15.10;81.60
17998;DHT22;9124;48.144;17.098;2024-03-23T08:29:24;15.50;80.20
17998;DHT22;9124;48.144;17.098;2024-03-23T08:33:51;16.80;79.80
17998;DHT22;9124;48.144;17.098;2024-03-23T08:38:17;18.10;77.50
17998;DHT22;9124;48.144;17.098;2024-03-23T08:42:44;21.70;73.80
17998;DHT22;9124;48.144;17.098;2024-03-23T08:47:10;20.50;68.50
17998;DHT22;9124;48.144;17.098;2024-03-23T08:51:37;18.70;67.20
17998;DHT22;9124;48.144;17.098;2024-03-23T08:56:04;17.20;68.20
17998;DHT22;9124;48.144;17.098;2024-03-23T09:00:32;16.80;68.50
17998;DHT22;9124;48.144;17.098;2024-03-23T09:04:58;19.90;69.40
17998;DHT22;9124;48.144;17.098;2024-03-23T09:09:30;26.50;65.90
17998;DHT22;9124;48.144;17.098;2024-03-23T09:13:57;30.50;58.70
17998;DHT22;9124;48.144;17.098;2024-03-23T09:18:23;32.00;52.90
17998;DHT22;9124;48.144;17.098;2024-03-23T09:22:50;33.50;49.40
17998;DHT22;9124;48.144;17.098;2024-03-23T09:27:16;34.50;46.00
17998;DHT22;9124;48.144;17.098;2024-03-23T09:31:43;35.20;43.50
17998;DHT22;9124;48.144;17.098;2024-03-23T09:36:09;34.50;40.90
17998;DHT22;9124;48.144;17.098;2024-03-23T09:40:42;34.70;40.80
17998;DHT22;9124;48.144;17.098;2024-03-23T09:45:20;36.10;38.70
17998;DHT22;9124;48.144;17.098;2024-03-23T09:49:47;36.50;36.80
17998;DHT22;9124;48.144;17.098;2024-03-23T09:54:14;36.80;36.40
17998;DHT22;9124;48.144;17.098;2024-03-23T09:58:40;37.20;36.20
17998;DHT22;9124;48.144;17.098;2024-03-23T10:03:07;38.10;34.90
17998;DHT22;9124;48.144;17.098;2024-03-23T10:07:34;37.20;34.70
17998;DHT22;9124;48.144;17.098;2024-03-23T10:12:10;37.70;33.80
17998;DHT22;9124;48.144;17.098;2024-03-23T10:16:39;37.50;32.80
17998;DHT22;9124;48.144;17.098;2024-03-23T10:25:33;36.60;33.60
17998;DHT22;9124;48.144;17.098;2024-03-23T10:30:11;36.40;32.20
17998;DHT22;9124;48.144;17.098;2024-03-23T10:34:39;34.90;32.80
17998;DHT22;9124;48.144;17.098;2024-03-23T10:39:07;31.70;32.80
17998;DHT22;9124;48.144;17.098;2024-03-23T10:43:34;28.00;34.30
17998;DHT22;9124;48.144;17.098;2024-03-23T10:48:03;25.90;36.10
17998;DHT22;9124;48.144;17.098;2024-03-23T10:52:34;24.60;37.80
17998;DHT22;9124;48.144;17.098;2024-03-23T10:57:09;23.60;39.40
17998;DHT22;9124;48.144;17.098;2024-03-23T11:01:54;22.90;40.80
17998;DHT22;9124;48.144;17.098;2024-03-23T11:06:38;22.40;42.10
17998;DHT22;9124;48.144;17.098;2024-03-23T11:11:22;21.90;43.40
17998;DHT22;9124;48.144;17.098;2024-03-23T11:15:51;21.40;44.40
17998;DHT22;9124;48.144;17.098;2024-03-23T11:20:31;21.70;44.50
17998;DHT22;9124;48.144;17.098;2024-03-23T11:24:59;21.70;45.20
17998;DHT22;9124;48.144;17.098;2024-03-23T11:29:26;21.70;45.40
17998;DHT22;9124;48.144;17.098;2024-03-23T11:34:03;21.60;45.90
17998;DHT22;9124;48.144;17.098;2024-03-23T11:38:36;21.50;47.00
17998;DHT22;9124;48.144;17.098;2024-03-23T11:43:12;21.40;47.60
17998;DHT22;9124;48.144;17.098;2024-03-23T11:47:39;21.40;47.90
17998;DHT22;9124;48.144;17.098;2024-03-23T11:52:06;21.10;48.00
17998;DHT22;9124;48.144;17.098;2024-03-23T11:56:32;20.80;48.40
17998;DHT22;9124;48.144;17.098;2024-03-23T12:01:01;20.10;49.20
17998;DHT22;9124;48.144;17.098;2024-03-23T12:05:30;19.40;50.60
17998;DHT22;9124;48.144;17.098;2024-03-23T12:10:04;19.00;51.50
17998;DHT22;9124;48.144;17.098;2024-03-23T12:14:32;18.80;52.90
17998;DHT22;9124;48.144;17.098;2024-03-23T12:19:05;18.50;54.00
17998;DHT22;9124;48.144;17.098;2024-03-23T12:23:33;18.40;54.70
17998;DHT22;9124;48.144;17.098;2024-03-23T12:27:59;18.60;54.40
17998;DHT22;9124;48.144;17.098;2024-03-23T12:32:26;18.60;54.70
17998;DHT22;9124;48.144;17.098;2024-03-23T12:36:53;18.60;55.30
17998;DHT22;9124;48.144;17.098;2024-03-23T12:41:19;18.50;55.40
17998;DHT22;9124;48.144;17.098;2024-03-23T12:45:49;18.60;55.40
17998;DHT22;9124;48.144;17.098;2024-03-23T12:50:16;18.70;55.40
17998;DHT22;9124;48.144;17.098;2024-03-23T12:54:42;18.60;55.40
17998;DHT22;9124;48.144;17.098;2024-03-23T12:59:09;18.50;55.50
17998;DHT22;9124;48.144;17.098;2024-03-23T13:03:35;18.60;55.50
17998;DHT22;9124;48.144;17.098;2024-03-23T13:08:02;18.60;55.70
17998;DHT22;9124;48.144;17.098;2024-03-23T13:12:29;18.60;55.90
17998;DHT22;9124;48.144;17.098;2024-03-23T13:16:56;18.80;56.00
17998;DHT22;9124;48.144;17.098;2024-03-23T13:21:22;18.80;55.70
17998;DHT22;9124;48.144;17.098;2024-03-23T13:25:54;18.90;55.70
17998;DHT22;9124;48.144;17.098;2024-03-23T13:30:20;18.90;55.50
17998;DHT22;9124;48.144;17.098;2024-03-23T13:34:48;18.90;55.50
17998;DHT22;9124;48.144;17.098;2024-03-23T13:39:16;19.00;55.10
17998;DHT22;9124;48.144;17.098;2024-03-23T13:43:44;19.10;54.60
17998;DHT22;9124;48.144;17.098;2024-03-23T13:48:10;19.20;54.60
17998;DHT22;9124;48.144;17.098;2024-03-23T13:52:36;19.40;54.60
17998;DHT22;9124;48.144;17.098;2024-03-23T13:57:02;19.70;54.30
17998;DHT22;9124;48.144;17.098;2024-03-23T14:01:29;19.80;53.10
17998;DHT22;9124;48.144;17.098;2024-03-23T14:05:58;19.60;53.10
17998;DHT22;9124;48.144;17.098;2024-03-23T14:10:25;18.90;54.70
17998;DHT22;9124;48.144;17.098;2024-03-23T14:14:51;18.30;55.60
17998;DHT22;9124;48.144;17.098;2024-03-23T14:19:19;17.50;56.30
17998;DHT22;9124;48.144;17.098;2024-03-23T14:23:45;17.00;57.50
17998;DHT22;9124;48.144;17.098;2024-03-23T14:28:12;16.50;58.40
17998;DHT22;9124;48.144;17.098;2024-03-23T14:32:41;16.00;59.50
17998;DHT22;9124;48.144;17.098;2024-03-23T14:37:07;15.30;60.20
17998;DHT22;9124;48.144;17.098;2024-03-23T14:41:34;14.80;61.00
17998;DHT22;9124;48.144;17.098;2024-03-23T14:50:36;14.40;62.30
17998;DHT22;9124;48.144;17.098;2024-03-23T14:55:02;14.30;62.60
17998;DHT22;9124;48.144;17.098;2024-03-23T14:59:28;14.30;62.80
17998;DHT22;9124;48.144;17.098;2024-03-23T15:03:56;14.30;63.30
17998;DHT22;9124;48.144;17.098;2024-03-23T15:08:23;14.20;64.20
17998;DHT22;9124;48.144;17.098;2024-03-23T15:12:49;14.00;64.00
17998;DHT22;9124;48.144;17.098;2024-03-23T15:17:16;13.80;65.00
17998;DHT22;9124;48.144;17.098;2024-03-23T15:21:43;13.50;65.80
17998;DHT22;9124;48.144;17.098;2024-03-23T15:26:10;13.20;66.60
17998;DHT22;9124;48.144;17.098;2024-03-23T15:30:36;12.90;67.50
17998;DHT22;9124;48.144;17.098;2024-03-23T15:35:05;12.70;68.90
17998;DHT22;9124;48.144;17.098;2024-03-23T15:39:33;12.40;69.80
17998;DHT22;9124;48.144;17.098;2024-03-23T15:44:00;12.20;70.80
17998;DHT22;9124;48.144;17.098;2024-03-23T15:48:27;11.90;71.40
17998;DHT22;9124;48.144;17.098;2024-03-23T15:52:53;11.60;72.50
17998;DHT22;9124;48.144;17.098;2024-03-23T15:57:21;11.30;73.80
17998;DHT22;9124;48.144;17.098;2024-03-23T16:01:48;10.80;74.10
17998;DHT22;9124;48.144;17.098;2024-03-23T16:06:14;10.20;74.20
17998;DHT22;9124;48.144;17.098;2024-03-23T16:10:41;9.70;74.70
17998;DHT22;9124;48.144;17.098;2024-03-23T16:15:07;9.30;75.40
17998;DHT22;9124;48.144;17.098;2024-03-23T16:19:35;9.00;75.90
17998;DHT22;9124;48.144;17.098;2024-03-23T16:24:01;8.90;76.50
17998;DHT22;9124;48.144;17.098;2024-03-23T16:28:30;8.80;77.10
17998;DHT22;9124;48.144;17.098;2024-03-23T16:32:56;8.90;77.80
17998;DHT22;9124;48.144;17.098;2024-03-23T16:37:24;8.90;78.40
17998;DHT22;9124;48.144;17.098;2024-03-23T16:41:51;9.00;79.10
17998;DHT22;9124;48.144;17.098;2024-03-23T16:46:17;9.10;79.70
17998;DHT22;9124;48.144;17.098;2024-03-23T16:50:43;9.10;80.30
17998;DHT22;9124;48.144;17.098;2024-03-23T16:55:10;9.20;80.80
17998;DHT22;9124;48.144;17.098;2024-03-23T16:59:36;9.30;81.40
17998;DHT22;9124;48.144;17.098;2024-03-23T17:04:03;9.20;82.30
17998;DHT22;9124;48.144;17.098;2024-03-23T17:08:30;9.30;82.50
17998;DHT22;9124;48.144;17.098;2024-03-23T17:12:57;9.30;82.40
17998;DHT22;9124;48.144;17.098;2024-03-23T17:17:24;9.30;82.40
17998;DHT22;9124;48.144;17.098;2024-03-23T17:21:50;9.30;82.80
17998;DHT22;9124;48.144;17.098;2024-03-23T17:26:17;9.30;83.10
17998;DHT22;9124;48.144;17.098;2024-03-23T17:30:46;9.30;83.80
17998;DHT22;9124;48.144;17.098;2024-03-23T17:35:14;9.30;84.60
17998;DHT22;9124;48.144;17.098;2024-03-23T17:39:40;9.30;85.40
17998;DHT22;9124;48.144;17.098;2024-03-23T17:44:07;9.30;85.50
17998;DHT22;9124;48.144;17.098;2024-03-23T17:48:33;9.40;85.20
17998;DHT22;9124;48.144;17.098;2024-03-23T17:53:00;9.40;85.20
17998;DHT22;9124;48.144;17.098;2024-03-23T17:57:27;9.40;85.90
17998;DHT22;9124;48.144;17.098;2024-03-23T18:01:53;9.30;86.60
17998;DHT22;9124;48.144;17.098;2024-03-23T18:06:20;9.20;87.40
17998;DHT22;9124;48.144;17.098;2024-03-23T18:10:47;9.20;88.30
17998;DHT22;9124;48.144;17.098;2024-03-23T18:15:13;9.20;89.10
17998;DHT22;9124;48.144;17.098;2024-03-23T18:19:40;9.30;89.30
17998;DHT22;9124;48.144;17.098;2024-03-23T18:24:06;9.40;89.00
17998;DHT22;9124;48.144;17.098;2024-03-23T18:28:33;9.40;88.60
17998;DHT22;9124;48.144;17.098;2024-03-23T18:32:59;9.40;88.60
17998;DHT22;9124;48.144;17.098;2024-03-23T18:37:26;9.40;88.60
17998;DHT22;9124;48.144;17.098;2024-03-23T18:41:52;9.50;88.60
17998;DHT22;9124;48.144;17.098;2024-03-23T18:46:19;9.50;88.40
17998;DHT22;9124;48.144;17.098;2024-03-23T18:50:49;9.50;88.30
17998;DHT22;9124;48.144;17.098;2024-03-23T18:55:16;9.60;88.30
17998;DHT22;9124;48.144;17.098;2024-03-23T18:59:42;9.60;88.10
17998;DHT22;9124;48.144;17.098;2024-03-23T19:04:09;9.50;87.90
17998;DHT22;9124;48.144;17.098;2024-03-23T19:08:35;9.60;87.90
17998;DHT22;9124;48.144;17.098;2024-03-23T19:13:02;9.60;87.60
17998;DHT22;9124;48.144;17.098;2024-03-23T19:17:28;9.60;87.90
17998;DHT22;9124;48.144;17.098;2024-03-23T19:21:54;9.50;87.80
17998;DHT22;9124;48.144;17.098;2024-03-23T19:26:21;9.50;88.30
17998;DHT22;9124;48.144;17.098;2024-03-23T19:30:49;9.50;88.90
17998;DHT22;9124;48.144;17.098;2024-03-23T19:35:15;9.50;89.20
17998;DHT22;9124;48.144;17.098;2024-03-23T19:39:43;9.50;88.80
17998;DHT22;9124;48.144;17.098;2024-03-23T19:44:10;9.50;87.20
17998;DHT22;9124;48.144;17.098;2024-03-23T19:48:36;9.60;86.50
17998;DHT22;9124;48.144;17.098;2024-03-23T19:53:02;9.60;85.40
17998;DHT22;9124;48.144;17.098;2024-03-23T19:57:30;9.70;84.40
17998;DHT22;9124;48.144;17.098;2024-03-23T20:01:57;9.70;83.40
17998;DHT22;9124;48.144;17.098;2024-03-23T20:06:25;9.70;81.90
17998;DHT22;9124;48.144;17.098;2024-03-23T20:10:51;9.70;81.30
17998;DHT22;9124;48.144;17.098;2024-03-23T20:15:17;9.70;80.60
17998;DHT22;9124;48.144;17.098;2024-03-23T20:19:44;9.70;80.00
17998;DHT22;9124;48.144;17.098;2024-03-23T20:24:11;9.60;78.80
17998;DHT22;9124;48.144;17.098;2024-03-23T20:28:38;9.50;78.20
17998;DHT22;9124;48.144;17.098;2024-03-23T20:33:04;9.40;78.20
17998;DHT22;9124;48.144;17.098;2024-03-23T20:37:30;9.30;78.40
17998;DHT22;9124;48.144;17.098;2024-03-23T20:41:57;9.30;78.90
17998;DHT22;9124;48.144;17.098;2024-03-23T20:46:23;9.30;79.50
17998;DHT22;9124;48.144;17.098;2024-03-23T20:51:00;9.30;80.00
17998;DHT22;9124;48.144;17.098;2024-03-23T20:55:27;9.30;80.60
17998;DHT22;9124;48.144;17.098;2024-03-23T20:59:53;9.20;81.40
17998;DHT22;9124;48.144;17.098;2024-03-23T21:04:22;9.10;82.90
17998;DHT22;9124;48.144;17.098;2024-03-23T21:08:48;9.00;83.30
17998;DHT22;9124;48.144;17.098;2024-03-23T21:13:14;8.90;84.80
17998;DHT22;9124;48.144;17.098;2024-03-23T21:17:42;8.90;86.30
17998;DHT22;9124;48.144;17.098;2024-03-23T21:22:08;8.90;87.50
17998;DHT22;9124;48.144;17.098;2024-03-23T21:26:35;8.80;88.40
17998;DHT22;9124;48.144;17.098;2024-03-23T21:31:07;8.80;89.10
17998;DHT22;9124;48.144;17.098;2024-03-23T21:35:34;8.80;89.70
17998;DHT22;9124;48.144;17.098;2024-03-23T21:40:00;8.80;90.10
17998;DHT22;9124;48.144;17.098;2024-03-23T21:44:27;8.70;90.30
17998;DHT22;9124;48.144;17.098;2024-03-23T21:48:53;8.70;90.30
17998;DHT22;9124;48.144;17.098;2024-03-23T21:53:20;8.70;90.40
17998;DHT22;9124;48.144;17.098;2024-03-23T21:57:47;8.70;90.50
17998;DHT22;9124;48.144;17.098;2024-03-23T22:02:15;8.70;90.60
17998;DHT22;9124;48.144;17.098;2024-03-23T22:06:42;8.60;90.60
17998;DHT22;9124;48.144;17.098;2024-03-23T22:11:10;8.50;90.40
17998;DHT22;9124;48.144;17.098;2024-03-23T22:15:36;8.50;90.60
17998;DHT22;9124;48.144;17.098;2024-03-23T22:20:03;8.40;90.70
17998;DHT22;9124;48.144;17.098;2024-03-23T22:24:31;8.30;90.80
17998;DHT22;9124;48.144;17.098;2024-03-23T22:28:58;8.30;90.90
17998;DHT22;9124;48.144;17.098;2024-03-23T22:33:25;8.30;91.00
17998;DHT22;9124;48.144;17.098;2024-03-23T22:37:53;8.20;91.30
17998;DHT22;9124;48.144;17.098;2024-03-23T22:42:19;8.20;91.30
17998;DHT22;9124;48.144;17.098;2024-03-23T22:46:45;8.00;91.20
17998;DHT22;9124;48.144;17.098;2024-03-23T22:51:12;7.80;91.20
17998;DHT22;9124;48.144;17.098;2024-03-23T22:55:39;7.60;91.50
17998;DHT22;9124;48.144;17.098;2024-03-23T23:00:05;7.30;91.80
17998;DHT22;9124;48.144;17.098;2024-03-23T23:04:55;7.10;92.10
17998;DHT22;9124;48.144;17.098;2024-03-23T23:09:22;6.80;92.60
17998;DHT22;9124;48.144;17.098;2024-03-23T23:13:56;6.70;93.00
17998;DHT22;9124;48.144;17.098;2024-03-23T23:18:23;6.50;93.60
17998;DHT22;9124;48.144;17.098;2024-03-23T23:22:52;6.40;94.00
17998;DHT22;9124;48.144;17.098;2024-03-23T23:27:19;6.40;94.40
17998;DHT22;9124;48.144;17.098;2024-03-23T23:31:46;6.40;94.60
17998;DHT22;9124;48.144;17.098;2024-03-23T23:36:15;6.50;94.90
17998;DHT22;9124;48.144;17.098;2024-03-23T23:40:42;6.50;95.00
17998;DHT22;9124;48.144;17.098;2024-03-23T23:45:08;6.50;95.10
17998;DHT22;9124;48.144;17.098;2024-03-23T23:49:35;6.60;95.20
17998;DHT22;9124;48.144;17.098;2024-03-23T23:54:02;6.60;95.10
17998;DHT22;9124;48.144;17.098;2024-03-23T23:58:29;6.40;95.10
